Terminal Aerodrome Forecast
Issued by NWS

Home | Current Version | Previous Version | Text Only | Print | Product List | Glossary On
Versions: 1 2 3 4 5 6 7 8 9 10 11 12 13
126
FTUS46 KLOX 131144
TAFOXR
TAF
KOXR 131144Z 1312/1412 04004KT 5SM BR SCT250
     FM131300 VRB03KT 1/2SM FG VV001
     FM131600 04005KT P6SM SCT250
     FM132100 27010KT P6SM SKC
     FM140300 VRB03KT P6SM SKC
     FM140900 04012KT P6SM SKC=

USA.gov is the U.S. government's official web portal to all federal, state and local government web resources and services.